Time;durP1;ratioP1;P1;durP2;ratioP2;P2;SDS_P1;SDS_P2;PMS_P1;PMS_P2;Temp;Humidity;BMP_temperature;BMP_pressure;BME280_temperature;BME280_humidity;BME280_pressure;Samples;Min_cycle;Max_cycle;Signal;HPM_P1;HPM_P2
2020/12/22 00:02:12;;;;;;;83.23;34.53;;;2.50;99.90;;;;;;5060609;28;20229;-69
2020/12/22 00:04:38;;;;;;;92.10;36.43;;;2.50;99.90;;;;;;5071281;28;20226;-69
2020/12/22 00:07:05;;;;;;;73.43;31.40;;;2.50;99.90;;;;;;5122529;28;20662;-69
2020/12/22 00:09:32;;;;;;;68.37;32.03;;;2.40;99.90;;;;;;5091680;28;20228;-69
2020/12/22 00:11:59;;;;;;;71.60;29.87;;;2.40;99.90;;;;;;5092548;28;20285;-69
2020/12/22 00:14:26;;;;;;;70.77;28.10;;;2.40;99.90;;;;;;5097180;28;20204;-69
2020/12/22 00:16:52;;;;;;;70.43;28.83;;;2.30;99.90;;;;;;5088646;28;20665;-69
2020/12/22 00:19:19;;;;;;;85.03;33.00;;;2.40;99.90;;;;;;5104179;28;20214;-69
2020/12/22 00:21:45;;;;;;;71.70;31.73;;;2.30;99.90;;;;;;5099262;28;21157;-69
2020/12/22 00:24:12;;;;;;;87.60;35.07;;;2.30;99.90;;;;;;5097686;28;20228;-69
2020/12/22 00:26:39;;;;;;;86.63;35.23;;;2.20;99.90;;;;;;5091560;28;20289;-69
2020/12/22 00:29:06;;;;;;;98.10;37.17;;;2.20;99.90;;;;;;5091633;28;20680;-69
2020/12/22 00:31:36;;;;;;;103.40;37.63;;;2.10;99.90;;;;;;5099211;28;20200;-69
2020/12/22 00:34:02;;;;;;;116.93;38.33;;;2.10;99.90;;;;;;5078108;28;20213;-69
2020/12/22 00:36:29;;;;;;;121.13;42.23;;;2.10;99.90;;;;;;5074361;28;20292;-69
2020/12/22 00:38:56;;;;;;;123.77;43.23;;;2.00;99.90;;;;;;5066878;28;20209;-69
2020/12/22 00:41:22;;;;;;;115.37;40.37;;;1.90;99.90;;;;;;5092607;28;20212;-69
2020/12/22 00:43:50;;;;;;;97.50;37.43;;;2.00;99.90;;;;;;5089453;28;20224;-69
2020/12/22 00:46:17;;;;;;;83.03;33.50;;;1.90;99.90;;;;;;5082212;28;20212;-69
2020/12/22 00:48:47;;;;;;;90.73;38.03;;;1.90;99.90;;;;;;5078039;28;20204;-69
2020/12/22 00:51:20;;;;;;;92.03;37.53;;;1.90;99.90;;;;;;5074394;28;20305;-69
2020/12/22 00:53:48;;;;;;;91.90;36.97;;;1.90;99.90;;;;;;5047029;28;20760;-69
2020/12/22 00:56:14;;;;;;;83.33;37.47;;;1.90;99.90;;;;;;5023313;28;20257;-69
2020/12/22 00:58:45;;;;;;;87.83;36.00;;;1.90;99.90;;;;;;5012194;28;20229;-68
2020/12/22 01:01:12;;;;;;;92.20;35.97;;;1.90;99.90;;;;;;5009377;28;20231;-69
2020/12/22 01:03:39;;;;;;;80.33;34.10;;;1.90;99.90;;;;;;5007237;28;20230;-68
2020/12/22 01:06:05;;;;;;;83.43;32.43;;;1.90;99.90;;;;;;5004914;28;20211;-69
2020/12/22 01:08:32;;;;;;;87.67;31.83;;;1.80;99.90;;;;;;5006840;28;20231;-69
2020/12/22 01:11:00;;;;;;;121.70;40.83;;;1.90;99.90;;;;;;5000147;28;20208;-69
2020/12/22 01:13:27;;;;;;;127.60;44.67;;;1.80;99.90;;;;;;4980937;28;20272;-69
2020/12/22 01:15:53;;;;;;;108.80;41.17;;;1.80;99.90;;;;;;4970768;28;20209;-69
2020/12/22 01:18:21;;;;;;;112.07;42.30;;;1.80;99.90;;;;;;4970801;28;20200;-69
2020/12/22 01:20:49;;;;;;;100.37;38.23;;;1.80;99.90;;;;;;4971617;28;20219;-69
2020/12/22 01:23:15;;;;;;;88.83;35.40;;;1.70;99.90;;;;;;4973329;28;20315;-69
2020/12/22 01:25:42;;;;;;;94.10;37.80;;;1.70;99.90;;;;;;5004446;28;20292;-69
2020/12/22 01:28:09;;;;;;;83.80;35.17;;;1.70;99.90;;;;;;5011286;28;20203;-68
2020/12/22 01:30:36;;;;;;;84.23;33.83;;;1.70;99.90;;;;;;5008930;28;20207;-69
2020/12/22 01:33:03;;;;;;;78.40;30.50;;;1.70;99.90;;;;;;5027378;28;20333;-69
2020/12/22 01:35:31;;;;;;;80.87;32.40;;;1.70;99.90;;;;;;5028435;28;20211;-69
2020/12/22 01:37:58;;;;;;;75.30;31.60;;;1.70;99.90;;;;;;5021451;28;20237;-69
2020/12/22 01:40:24;;;;;;;67.40;28.50;;;1.70;99.90;;;;;;5023342;28;20199;-69
2020/12/22 01:42:51;;;;;;;64.37;28.60;;;1.70;99.90;;;;;;5026659;28;20582;-69
2020/12/22 01:45:17;;;;;;;64.93;28.20;;;1.70;99.90;;;;;;5027865;28;20203;-69
2020/12/22 01:47:46;;;;;;;61.33;26.40;;;1.70;99.90;;;;;;5009592;28;20211;-69
2020/12/22 01:50:16;;;;;;;53.50;25.07;;;1.70;99.90;;;;;;4998341;28;20207;-69
2020/12/22 01:52:44;;;;;;;55.57;22.60;;;1.70;99.90;;;;;;4995855;28;20326;-69
2020/12/22 01:55:11;;;;;;;64.93;24.73;;;1.70;99.90;;;;;;5037689;28;20209;-69
2020/12/22 01:57:38;;;;;;;108.73;30.77;;;1.60;99.90;;;;;;5038297;28;20210;-70
2020/12/22 02:00:05;;;;;;;97.53;30.80;;;1.60;99.90;;;;;;5039825;28;20206;-69
2020/12/22 02:02:32;;;;;;;100.83;30.93;;;1.60;99.90;;;;;;5036715;28;20434;-69
2020/12/22 02:05:00;;;;;;;84.30;28.20;;;1.50;99.90;;;;;;5066537;28;20283;-68
2020/12/22 02:07:27;;;;;;;79.13;28.63;;;1.50;99.90;;;;;;5069446;28;20209;-69
2020/12/22 02:09:55;;;;;;;71.20;26.73;;;1.50;99.90;;;;;;5080485;28;20229;-69
2020/12/22 02:12:21;;;;;;;68.83;27.20;;;1.50;99.90;;;;;;5076108;28;20243;-69
2020/12/22 02:14:48;;;;;;;66.30;26.30;;;1.50;99.90;;;;;;5080428;28;20205;-68
2020/12/22 02:17:15;;;;;;;64.80;26.50;;;1.40;99.90;;;;;;5086201;28;20513;-69
2020/12/22 02:19:41;;;;;;;73.77;31.07;;;1.40;99.90;;;;;;5027174;28;20670;-68
2020/12/22 02:22:09;;;;;;;127.00;37.67;;;1.40;99.90;;;;;;5073986;28;20561;-69
2020/12/22 02:24:36;;;;;;;154.77;45.27;;;1.40;99.90;;;;;;5045221;28;20233;-69
2020/12/22 02:27:04;;;;;;;137.83;44.67;;;1.40;99.90;;;;;;5047664;28;20221;-69
2020/12/22 02:29:31;;;;;;;108.63;38.70;;;1.40;99.90;;;;;;5007161;28;20210;-69
2020/12/22 02:31:59;;;;;;;103.20;39.50;;;1.40;99.90;;;;;;5008217;28;20362;-69
2020/12/22 02:34:25;;;;;;;108.23;39.13;;;1.50;99.90;;;;;;5008739;28;20568;-69
2020/12/22 02:36:52;;;;;;;85.93;33.60;;;1.50;99.90;;;;;;5009048;28;20214;-68
2020/12/22 02:39:19;;;;;;;77.43;31.53;;;1.50;99.90;;;;;;5007415;28;20214;-68
2020/12/22 02:41:46;;;;;;;70.17;28.83;;;1.60;99.90;;;;;;5008457;28;20601;-69
2020/12/22 02:44:12;;;;;;;67.27;27.77;;;1.60;99.90;;;;;;5004907;28;20331;-69
2020/12/22 02:46:39;;;;;;;65.03;27.63;;;1.60;99.90;;;;;;5004212;28;20207;-68
2020/12/22 02:49:06;;;;;;;58.00;25.27;;;1.70;99.90;;;;;;4970908;28;20216;-69
2020/12/22 02:51:32;;;;;;;54.30;23.07;;;1.70;99.90;;;;;;4966815;28;20203;-69
2020/12/22 02:53:59;;;;;;;51.60;22.20;;;1.80;99.90;;;;;;4948250;28;20210;-68
2020/12/22 02:56:27;;;;;;;53.27;23.13;;;1.90;99.90;;;;;;5005220;28;20225;-69
2020/12/22 02:58:53;;;;;;;48.83;22.23;;;1.90;99.90;;;;;;5044694;28;20245;-69
2020/12/22 03:01:20;;;;;;;55.73;22.93;;;2.00;99.90;;;;;;5063508;28;20396;-69
2020/12/22 03:03:46;;;;;;;50.33;21.73;;;2.00;99.90;;;;;;5066011;28;21164;-68
2020/12/22 03:06:13;;;;;;;53.27;23.80;;;2.10;99.90;;;;;;5067098;28;20208;-68
2020/12/22 03:08:40;;;;;;;48.53;21.40;;;2.10;99.90;;;;;;5078067;28;20215;-69
2020/12/22 03:11:07;;;;;;;52.47;23.83;;;2.10;99.90;;;;;;5076573;28;20212;-69
2020/12/22 03:13:34;;;;;;;56.07;24.23;;;2.20;99.90;;;;;;5078176;28;20263;-68
2020/12/22 03:16:01;;;;;;;57.90;25.13;;;2.20;99.90;;;;;;5079561;28;20200;-69
2020/12/22 03:18:28;;;;;;;53.00;22.90;;;2.20;99.90;;;;;;5099616;28;20602;-69
2020/12/22 03:20:54;;;;;;;56.93;24.03;;;2.20;99.90;;;;;;5098479;28;20609;-68
2020/12/22 03:23:21;;;;;;;49.77;22.97;;;2.30;99.90;;;;;;5097690;28;20538;-68
2020/12/22 03:25:47;;;;;;;50.97;22.83;;;2.30;99.90;;;;;;5061107;28;20196;-69
2020/12/22 03:28:14;;;;;;;47.90;23.30;;;2.30;99.90;;;;;;5051254;28;20209;-68
2020/12/22 03:30:41;;;;;;;53.37;23.03;;;2.30;99.90;;;;;;5059081;28;20213;-68
2020/12/22 03:33:08;;;;;;;46.63;22.43;;;2.30;99.90;;;;;;5050232;28;20255;-69
2020/12/22 03:35:34;;;;;;;52.17;21.87;;;2.40;99.90;;;;;;5047476;28;20213;-68
2020/12/22 03:38:02;;;;;;;40.90;20.27;;;2.30;99.90;;;;;;5051449;28;20230;-69
2020/12/22 03:40:28;;;;;;;49.10;21.67;;;2.60;99.90;;;;;;5027178;28;20229;-69
2020/12/22 03:42:55;;;;;;;52.17;23.23;;;2.30;99.90;;;;;;4993311;28;20214;-69
2020/12/22 03:45:22;;;;;;;52.97;23.13;;;2.30;99.90;;;;;;4990143;28;20318;-68
2020/12/22 03:47:49;;;;;;;48.00;22.13;;;2.40;99.90;;;;;;4998213;28;20659;-68
2020/12/22 03:50:16;;;;;;;53.73;23.97;;;2.40;99.90;;;;;;4978054;28;20623;-69
2020/12/22 03:52:42;;;;;;;67.83;26.93;;;2.50;99.90;;;;;;4978910;28;20266;-69
2020/12/22 03:55:09;;;;;;;64.07;29.23;;;2.50;99.90;;;;;;4979061;28;20708;-68
2020/12/22 03:57:35;;;;;;;65.60;28.27;;;2.50;99.90;;;;;;4986586;28;20648;-69
2020/12/22 04:00:02;;;;;;;54.57;24.27;;;2.50;99.90;;;;;;4971345;28;20324;-69
2020/12/22 04:02:31;;;;;;;53.40;23.87;;;2.60;99.90;;;;;;4979171;28;20203;-69
2020/12/22 04:04:58;;;;;;;54.00;23.47;;;2.60;99.90;;;;;;4981142;28;20228;-69
2020/12/22 04:07:25;;;;;;;63.60;27.37;;;2.70;99.90;;;;;;4981697;28;20715;-69
2020/12/22 04:09:51;;;;;;;61.47;27.07;;;2.70;99.90;;;;;;4962338;28;20232;-69
2020/12/22 04:12:18;;;;;;;66.13;27.23;;;2.70;99.90;;;;;;4979200;28;20211;-69
2020/12/22 04:14:44;;;;;;;64.03;25.77;;;2.70;99.90;;;;;;5006719;28;20203;-69
2020/12/22 04:17:12;;;;;;;66.10;26.00;;;2.70;99.90;;;;;;5008494;28;20216;-69
2020/12/22 04:19:38;;;;;;;62.17;26.17;;;2.70;99.90;;;;;;4994523;28;20307;-69
2020/12/22 04:22:06;;;;;;;67.13;27.33;;;2.70;99.90;;;;;;4991846;28;20224;-69
2020/12/22 04:24:33;;;;;;;59.83;26.83;;;2.70;99.90;;;;;;4993025;28;20259;-69
2020/12/22 04:26:59;;;;;;;65.33;26.67;;;2.70;99.90;;;;;;5016516;28;20261;-69
2020/12/22 04:29:26;;;;;;;63.80;26.33;;;2.70;99.90;;;;;;5033055;28;20293;-69
2020/12/22 04:31:52;;;;;;;68.23;28.13;;;2.70;99.90;;;;;;5030141;28;20670;-69
2020/12/22 04:34:19;;;;;;;68.00;28.50;;;2.70;99.90;;;;;;5031545;28;20256;-69
2020/12/22 04:36:46;;;;;;;70.97;29.67;;;2.70;99.90;;;;;;5012156;28;20207;-69
2020/12/22 04:39:13;;;;;;;78.77;31.67;;;2.60;99.90;;;;;;5011344;28;20215;-69
2020/12/22 04:41:45;;;;;;;72.40;30.70;;;2.60;99.90;;;;;;5014435;28;20209;-69
2020/12/22 04:44:12;;;;;;;82.80;33.67;;;2.60;99.90;;;;;;5065561;28;20305;-69
2020/12/22 04:46:39;;;;;;;72.53;30.43;;;2.60;99.90;;;;;;5072671;28;20240;-69
2020/12/22 04:49:09;;;;;;;73.30;31.97;;;2.60;99.90;;;;;;5082966;28;20201;-69
2020/12/22 04:51:38;;;;;;;79.07;33.90;;;2.60;99.90;;;;;;5093776;28;20231;-69
2020/12/22 04:54:05;;;;;;;82.10;34.83;;;2.60;99.90;;;;;;5096424;28;20338;-69
2020/12/22 04:56:33;;;;;;;75.93;33.23;;;2.50;99.90;;;;;;5093998;28;20277;-67
2020/12/22 04:59:00;;;;;;;72.40;33.00;;;2.50;99.90;;;;;;5052415;28;20271;-67
2020/12/22 05:01:26;;;;;;;75.73;33.37;;;2.50;99.90;;;;;;5054168;28;20205;-67
2020/12/22 05:03:53;;;;;;;67.23;29.63;;;2.50;99.90;;;;;;5055618;28;20225;-70
2020/12/22 05:06:20;;;;;;;65.73;28.63;;;2.50;99.90;;;;;;5056219;28;20251;-67
2020/12/22 05:08:46;;;;;;;65.87;28.27;;;2.50;99.90;;;;;;5101427;28;20224;-67
2020/12/22 05:11:15;;;;;;;57.50;26.67;;;2.50;99.90;;;;;;5096855;28;20233;-67
2020/12/22 05:13:43;;;;;;;62.70;27.00;;;2.60;99.90;;;;;;5089426;28;20734;-68
2020/12/22 05:16:10;;;;;;;68.37;27.70;;;2.60;99.90;;;;;;5069101;28;20205;-68
2020/12/22 05:18:36;;;;;;;58.20;26.60;;;2.70;99.90;;;;;;5063111;28;20673;-68
2020/12/22 05:21:03;;;;;;;59.43;24.97;;;2.70;99.90;;;;;;5076666;28;20205;-68
2020/12/22 05:23:31;;;;;;;62.97;27.40;;;2.70;99.90;;;;;;5062429;28;20213;-68
2020/12/22 05:25:59;;;;;;;59.63;28.03;;;2.70;99.90;;;;;;5069859;28;20204;-68
2020/12/22 05:28:27;;;;;;;61.23;26.23;;;2.70;99.90;;;;;;5061626;28;20237;-68
2020/12/22 05:30:54;;;;;;;59.63;27.00;;;2.70;99.90;;;;;;5069015;28;20209;-67
2020/12/22 05:33:21;;;;;;;70.47;29.13;;;2.70;99.90;;;;;;5049876;28;20278;-68
2020/12/22 05:35:48;;;;;;;68.07;28.90;;;2.60;99.90;;;;;;5050721;28;20210;-68
2020/12/22 05:38:18;;;;;;;81.20;32.57;;;2.60;99.90;;;;;;5031903;28;20623;-68
2020/12/22 05:40:45;;;;;;;77.63;31.97;;;2.60;99.90;;;;;;5029248;28;20202;-68
2020/12/22 05:43:12;;;;;;;82.40;32.37;;;2.50;99.90;;;;;;5014184;28;20253;-68
2020/12/22 05:45:40;;;;;;;79.80;31.90;;;2.50;99.90;;;;;;5012107;28;20603;-68
2020/12/22 05:48:14;;;;;;;78.10;31.47;;;2.40;99.90;;;;;;5028028;28;20202;-67
2020/12/22 05:50:41;;;;;;;74.40;31.00;;;2.40;99.90;;;;;;5029483;28;20637;-68
2020/12/22 05:53:10;;;;;;;70.97;29.90;;;2.40;99.90;;;;;;5029406;28;20738;-68
2020/12/22 05:55:37;;;;;;;81.77;32.37;;;2.40;99.90;;;;;;5029911;28;20198;-67
2020/12/22 05:58:08;;;;;;;91.83;32.60;;;2.30;99.90;;;;;;5029677;28;20741;-68
2020/12/22 06:00:36;;;;;;;93.07;35.87;;;2.30;99.90;;;;;;5028550;28;20226;-68
2020/12/22 06:03:07;;;;;;;116.50;39.23;;;2.20;99.90;;;;;;4996409;28;20204;-68
2020/12/22 06:05:38;;;;;;;120.33;40.93;;;2.20;99.90;;;;;;4951556;28;20522;-68
2020/12/22 06:08:09;;;;;;;117.27;41.10;;;2.20;99.90;;;;;;4950846;28;20239;-68
2020/12/22 06:10:36;;;;;;;121.80;43.30;;;2.20;99.90;;;;;;5017853;28;20202;-68
2020/12/22 06:13:04;;;;;;;107.63;40.73;;;2.10;99.90;;;;;;5029845;28;20295;-67
2020/12/22 06:15:31;;;;;;;101.43;38.77;;;2.10;99.90;;;;;;5027434;28;20238;-68
2020/12/22 06:17:58;;;;;;;102.97;39.67;;;2.20;99.90;;;;;;5030057;28;20214;-68
2020/12/22 06:20:27;;;;;;;98.50;37.20;;;2.20;99.90;;;;;;5020183;28;20256;-68
2020/12/22 06:23:01;;;;;;;99.23;37.30;;;2.20;99.90;;;;;;5029801;28;20233;-68
2020/12/22 06:25:28;;;;;;;108.13;39.97;;;2.20;99.90;;;;;;5000471;28;20290;-68
2020/12/22 06:27:55;;;;;;;101.80;36.17;;;2.20;99.90;;;;;;5008607;28;20210;-68
2020/12/22 06:30:33;;;;;;;113.50;43.13;;;2.30;99.90;;;;;;5006514;28;20210;-67
2020/12/22 06:33:19;;;;;;;111.50;40.73;;;2.30;99.90;;;;;;5011318;28;20659;-68
2020/12/22 06:36:01;;;;;;;99.13;38.40;;;2.30;99.90;;;;;;5041257;28;20681;-68
2020/12/22 06:38:53;;;;;;;93.37;36.10;;;2.30;99.90;;;;;;5061434;28;20663;-68
2020/12/22 06:41:53;;;;;;;76.17;30.53;;;2.40;99.90;;;;;;5077313;28;20715;-68
2020/12/22 06:44:25;;;;;;;72.90;29.33;;;2.50;99.90;;;;;;5091087;28;20278;-68
2020/12/22 06:46:53;;;;;;;71.17;30.30;;;2.50;99.90;;;;;;5106843;28;20199;-67
2020/12/22 06:49:35;;;;;;;64.90;27.93;;;2.60;99.90;;;;;;5112851;27;20381;-68
2020/12/22 06:52:02;;;;;;;66.10;27.07;;;2.60;99.90;;;;;;5109306;27;20287;-68
2020/12/22 06:54:33;;;;;;;71.83;29.80;;;2.70;99.90;;;;;;5112491;27;20665;-68
2020/12/22 06:57:00;;;;;;;68.10;28.03;;;2.70;99.90;;;;;;5113892;27;20268;-68
2020/12/22 06:59:56;;;;;;;63.97;27.30;;;2.80;99.90;;;;;;5112530;27;20203;-68
2020/12/22 07:02:31;;;;;;;72.80;29.67;;;2.80;99.90;;;;;;5073359;28;20223;-67
2020/12/22 07:04:58;;;;;;;83.10;31.37;;;2.80;99.90;;;;;;5093710;28;20220;-67
2020/12/22 07:07:25;;;;;;;76.87;30.83;;;2.80;99.90;;;;;;5093223;28;20628;-67
2020/12/22 07:10:11;;;;;;;65.30;27.00;;;2.80;99.90;;;;;;5093846;28;20315;-67
2020/12/22 07:12:38;;;;;;;80.27;30.70;;;2.90;99.90;;;;;;5094837;28;20227;-67
2020/12/22 07:15:05;;;;;;;90.53;34.93;;;2.90;99.90;;;;;;5096597;28;20236;-67
2020/12/22 07:17:32;;;;;;;89.70;35.53;;;2.90;99.90;;;;;;5083756;28;20216;-68
2020/12/22 07:19:59;;;;;;;92.83;36.10;;;2.90;99.90;;;;;;5065839;28;20208;-67
2020/12/22 07:22:26;;;;;;;90.50;33.90;;;2.90;99.90;;;;;;5076984;28;20205;-68
2020/12/22 07:24:53;;;;;;;76.37;31.07;;;3.00;99.90;;;;;;5074174;28;20258;-68
2020/12/22 07:27:20;;;;;;;86.50;34.00;;;3.00;99.90;;;;;;5051504;28;20209;-68
2020/12/22 07:29:47;;;;;;;89.90;34.23;;;3.00;99.90;;;;;;5046174;28;20205;-68
2020/12/22 07:32:14;;;;;;;94.67;36.03;;;3.10;99.90;;;;;;5046842;28;20296;-68
2020/12/22 07:34:42;;;;;;;89.73;36.53;;;3.10;99.90;;;;;;5048703;28;20683;-68
2020/12/22 07:37:10;;;;;;;92.10;38.33;;;3.20;99.90;;;;;;5094925;28;20610;-68
2020/12/22 07:39:37;;;;;;;105.80;39.20;;;3.20;99.90;;;;;;5107127;28;20237;-68
2020/12/22 07:42:12;;;;;;;98.73;37.87;;;3.20;99.90;;;;;;5108045;28;20291;-68
2020/12/22 07:44:40;;;;;;;95.63;38.17;;;3.30;99.90;;;;;;5080113;28;20820;-68
2020/12/22 07:47:08;;;;;;;101.00;38.77;;;3.30;99.90;;;;;;5086101;28;20668;-68
2020/12/22 07:49:35;;;;;;;115.33;41.57;;;3.40;99.90;;;;;;5089255;28;20394;-68
2020/12/22 07:52:04;;;;;;;99.93;38.07;;;3.40;99.90;;;;;;5062650;28;20337;-68
2020/12/22 07:54:32;;;;;;;96.00;36.83;;;3.40;99.90;;;;;;5065135;28;20214;-68
2020/12/22 07:57:00;;;;;;;101.13;40.80;;;3.50;99.90;;;;;;5049511;28;20202;-68
2020/12/22 07:59:28;;;;;;;118.60;43.90;;;3.50;99.90;;;;;;5049543;28;20202;-69
2020/12/22 08:01:55;;;;;;;117.27;44.30;;;3.50;99.90;;;;;;4995371;28;21047;-68
2020/12/22 08:04:24;;;;;;;117.37;42.73;;;3.50;99.90;;;;;;4997151;28;20281;-68
2020/12/22 08:06:56;;;;;;;97.17;38.80;;;3.50;99.90;;;;;;5004247;28;20265;-68
2020/12/22 08:09:26;;;;;;;105.03;40.93;;;3.50;99.90;;;;;;4968284;28;20444;-68
2020/12/22 08:11:55;;;;;;;99.80;40.57;;;3.50;99.90;;;;;;4967452;28;20208;-69
2020/12/22 08:14:23;;;;;;;108.73;43.47;;;3.50;99.90;;;;;;4965965;28;20220;-68
2020/12/22 08:16:52;;;;;;;95.53;39.30;;;3.50;99.90;;;;;;4950308;28;20589;-68
2020/12/22 08:19:20;;;;;;;99.37;42.40;;;3.50;99.90;;;;;;4950003;28;20682;-68
2020/12/22 08:21:48;;;;;;;101.23;39.03;;;3.50;99.90;;;;;;4969054;28;20208;-69
2020/12/22 08:24:17;;;;;;;96.00;39.00;;;3.50;99.90;;;;;;4988445;28;20266;-68
2020/12/22 08:26:47;;;;;;;90.03;38.33;;;3.50;99.90;;;;;;4988116;28;20298;-68
2020/12/22 08:29:15;;;;;;;84.67;36.53;;;3.50;99.90;;;;;;4993729;28;20211;-68
2020/12/22 08:31:43;;;;;;;98.77;38.93;;;3.60;99.90;;;;;;5019024;28;20301;-68
2020/12/22 08:34:10;;;;;;;97.17;39.10;;;3.60;99.90;;;;;;5031002;28;20202;-68
2020/12/22 08:36:38;;;;;;;104.47;42.73;;;3.70;99.90;;;;;;5031266;28;20206;-68
2020/12/22 08:39:16;;;;;;;101.80;40.90;;;3.70;99.90;;;;;;5029280;28;20305;-68
2020/12/22 08:41:45;;;;;;;98.03;39.97;;;3.70;99.90;;;;;;5008663;28;20214;-68
2020/12/22 08:44:12;;;;;;;98.00;40.33;;;3.80;99.90;;;;;;5029394;28;20218;-68
2020/12/22 08:46:39;;;;;;;90.73;36.70;;;3.80;99.90;;;;;;5030926;28;20214;-68
2020/12/22 08:49:07;;;;;;;83.80;36.33;;;3.90;99.90;;;;;;5073270;28;20258;-68
2020/12/22 08:51:34;;;;;;;72.27;32.00;;;4.00;99.90;;;;;;5057259;28;20227;-68
2020/12/22 08:54:03;;;;;;;78.70;32.03;;;4.10;99.90;;;;;;5048036;28;20233;-68
2020/12/22 08:56:29;;;;;;;78.23;33.40;;;4.20;99.90;;;;;;5030651;28;20268;-68
2020/12/22 08:58:58;;;;;;;82.13;33.30;;;4.30;99.90;;;;;;5029030;28;20805;-68
2020/12/22 09:01:27;;;;;;;70.10;29.70;;;4.40;99.90;;;;;;5006974;28;20710;-68
2020/12/22 09:03:56;;;;;;;71.23;29.33;;;4.40;99.90;;;;;;5004869;28;20674;-68
2020/12/22 09:06:33;;;;;;;73.83;30.50;;;4.50;99.90;;;;;;5010077;28;20219;-68
2020/12/22 09:09:00;;;;;;;79.70;30.37;;;4.60;99.90;;;;;;4999086;28;20326;-68
2020/12/22 09:11:28;;;;;;;71.53;28.23;;;4.70;99.90;;;;;;5062263;28;20216;-68
2020/12/22 09:14:05;;;;;;;69.83;28.73;;;4.80;99.90;;;;;;5015070;28;20331;-68
2020/12/22 09:16:48;;;;;;;75.73;30.27;;;4.80;99.90;;;;;;5017125;28;20363;-68
2020/12/22 09:19:15;;;;;;;80.17;30.90;;;4.90;99.90;;;;;;5010415;28;20215;-68
2020/12/22 09:21:41;;;;;;;76.07;30.13;;;4.90;99.90;;;;;;5023386;28;20203;-68
2020/12/22 09:24:14;;;;;;;73.50;29.17;;;5.00;99.90;;;;;;5016334;28;20739;-69
2020/12/22 09:26:53;;;;;;;75.20;30.23;;;5.50;99.90;;;;;;5020991;28;20554;-68
2020/12/22 09:29:21;;;;;;;75.27;29.37;;;5.10;99.90;;;;;;5025408;28;20712;-69
2020/12/22 09:31:48;;;;;;;74.33;29.83;;;5.10;99.90;;;;;;5010151;28;20578;-69
2020/12/22 09:34:14;;;;;;;80.17;29.70;;;5.20;99.90;;;;;;4990092;28;20695;-69
2020/12/22 09:36:41;;;;;;;76.27;29.73;;;5.30;99.90;;;;;;4989858;28;20231;-69
2020/12/22 09:39:08;;;;;;;78.73;29.90;;;5.30;99.90;;;;;;4990353;28;20306;-68
2020/12/22 09:41:41;;;;;;;80.23;31.17;;;5.30;99.90;;;;;;4950938;28;20227;-69
2020/12/22 09:44:09;;;;;;;79.53;31.53;;;5.30;99.90;;;;;;4952560;28;20600;-68
2020/12/22 09:46:36;;;;;;;73.20;31.10;;;5.20;99.90;;;;;;4989797;28;20237;-68
2020/12/22 09:49:03;;;;;;;68.73;30.17;;;5.20;99.90;;;;;;4961313;28;20213;-69
2020/12/22 09:51:29;;;;;;;69.93;28.93;;;5.20;99.90;;;;;;4963257;28;20604;-68
2020/12/22 09:53:56;;;;;;;65.20;27.90;;;5.20;99.90;;;;;;4970542;28;20237;-69
2020/12/22 09:56:23;;;;;;;60.87;26.77;;;5.20;99.90;;;;;;4962706;28;20221;-69
2020/12/22 09:58:49;;;;;;;67.03;29.93;;;5.20;99.90;;;;;;4967964;28;20241;-68
2020/12/22 10:01:22;;;;;;;66.67;30.50;;;5.20;99.90;;;;;;4944113;29;20300;-68
2020/12/22 10:03:50;;;;;;;73.70;33.17;;;5.10;99.90;;;;;;4943335;29;20588;-68
2020/12/22 10:06:18;;;;;;;76.80;33.00;;;5.10;99.90;;;;;;4944908;29;20218;-68
2020/12/22 10:08:45;;;;;;;71.50;31.77;;;5.10;99.90;;;;;;4945164;29;20235;-68
2020/12/22 10:11:12;;;;;;;73.33;31.37;;;5.10;99.90;;;;;;4953523;28;20259;-68
2020/12/22 10:13:39;;;;;;;74.13;33.40;;;5.10;99.90;;;;;;5004959;28;20387;-68
2020/12/22 10:16:07;;;;;;;83.17;35.00;;;5.10;99.90;;;;;;5008382;28;20220;-68
2020/12/22 10:18:35;;;;;;;80.73;33.00;;;5.10;99.90;;;;;;5008425;28;20736;-69
2020/12/22 10:21:04;;;;;;;74.10;33.10;;;5.10;99.90;;;;;;5026312;28;20273;-68
2020/12/22 10:23:31;;;;;;;79.23;34.80;;;5.10;99.90;;;;;;5027449;28;20627;-69
2020/12/22 10:25:57;;;;;;;73.33;33.70;;;5.10;99.90;;;;;;4996628;28;20743;-68
2020/12/22 10:28:24;;;;;;;76.67;34.03;;;5.00;99.90;;;;;;4989537;28;20297;-68
2020/12/22 10:30:50;;;;;;;74.10;33.00;;;5.00;99.90;;;;;;4990168;28;20271;-69
2020/12/22 10:33:17;;;;;;;70.37;31.70;;;5.00;99.90;;;;;;5000743;28;20211;-69
2020/12/22 10:35:46;;;;;;;65.57;30.17;;;5.00;99.90;;;;;;5072084;28;20228;-68
2020/12/22 10:38:12;;;;;;;65.00;30.83;;;5.00;99.90;;;;;;5108328;28;20289;-69
2020/12/22 10:40:39;;;;;;;74.00;33.10;;;5.00;99.90;;;;;;5107045;28;20284;-68
2020/12/22 10:43:06;;;;;;;78.87;34.20;;;5.00;99.90;;;;;;5107353;28;20197;-69
2020/12/22 10:45:33;;;;;;;68.17;31.67;;;5.00;99.90;;;;;;5094929;28;20221;-69
2020/12/22 10:48:00;;;;;;;70.40;31.93;;;5.00;99.90;;;;;;5045399;28;20207;-69
2020/12/22 10:50:27;;;;;;;75.97;31.30;;;5.00;99.90;;;;;;5044917;28;20242;-69
2020/12/22 10:52:54;;;;;;;65.87;28.93;;;5.00;99.90;;;;;;5044046;28;20215;-69
2020/12/22 10:55:21;;;;;;;72.77;30.60;;;5.10;99.90;;;;;;5042767;28;20579;-69
2020/12/22 10:57:51;;;;;;;64.07;28.67;;;5.10;99.90;;;;;;5034105;28;20294;-69
2020/12/22 11:00:17;;;;;;;60.70;26.87;;;5.20;99.90;;;;;;5039096;28;20355;-69
2020/12/22 11:02:45;;;;;;;57.77;25.43;;;5.20;99.90;;;;;;5039643;28;20217;-69
2020/12/22 11:05:12;;;;;;;57.87;25.23;;;5.30;99.90;;;;;;5013032;28;20224;-69
2020/12/22 11:07:43;;;;;;;58.97;25.83;;;5.40;99.90;;;;;;5001682;28;20271;-69
2020/12/22 11:10:10;;;;;;;57.90;24.47;;;5.40;99.90;;;;;;4975468;28;20351;-69
2020/12/22 11:12:37;;;;;;;53.97;24.70;;;5.50;99.90;;;;;;4978076;28;20579;-69
2020/12/22 11:15:04;;;;;;;58.90;24.83;;;5.50;99.90;;;;;;4956832;28;20229;-69
2020/12/22 11:17:31;;;;;;;64.97;24.00;;;5.60;99.90;;;;;;4957929;28;20242;-69
2020/12/22 11:19:57;;;;;;;61.33;27.03;;;5.60;99.90;;;;;;4961099;28;20249;-69
2020/12/22 11:22:24;;;;;;;66.20;26.30;;;5.70;99.90;;;;;;4968816;28;20233;-69
2020/12/22 11:24:50;;;;;;;50.47;23.53;;;5.70;99.90;;;;;;4952497;28;20268;-69
2020/12/22 11:27:19;;;;;;;45.67;21.83;;;5.80;99.90;;;;;;4996204;28;20701;-69
2020/12/22 11:29:46;;;;;;;45.90;20.23;;;5.90;99.90;;;;;;4967165;28;20218;-69
2020/12/22 11:32:13;;;;;;;35.37;17.17;;;6.00;99.90;;;;;;4969192;28;20298;-69
2020/12/22 11:34:39;;;;;;;36.17;16.27;;;6.00;99.90;;;;;;4970873;28;20226;-69
2020/12/22 11:37:06;;;;;;;31.10;15.00;;;6.10;99.90;;;;;;4986043;28;20291;-69
2020/12/22 11:39:32;;;;;;;30.87;15.13;;;6.10;99.90;;;;;;4990550;28;20690;-69
2020/12/22 11:42:04;;;;;;;30.97;13.77;;;6.10;99.90;;;;;;5018241;28;20210;-69
2020/12/22 11:44:32;;;;;;;25.40;12.43;;;6.10;99.90;;;;;;5026047;28;20235;-68
2020/12/22 11:46:59;;;;;;;24.13;12.37;;;6.20;99.90;;;;;;5066294;28;20234;-68
2020/12/22 11:49:27;;;;;;;29.27;13.13;;;6.20;99.90;;;;;;5033505;28;20621;-69
2020/12/22 11:51:57;;;;;;;26.30;13.53;;;6.20;99.90;;;;;;5022641;28;20297;-69
2020/12/22 11:54:24;;;;;;;21.93;11.60;;;6.20;99.90;;;;;;5028694;28;20680;-69
2020/12/22 11:56:52;;;;;;;19.40;10.37;;;6.30;99.90;;;;;;5056678;28;20211;-69
2020/12/22 11:59:19;;;;;;;24.97;11.83;;;6.30;99.90;;;;;;5061143;28;20217;-69
2020/12/22 12:01:47;;;;;;;26.27;12.50;;;6.30;99.90;;;;;;5075940;28;20385;-68
2020/12/22 12:04:13;;;;;;;23.97;10.90;;;6.30;99.90;;;;;;5054408;28;20684;-69
2020/12/22 12:06:45;;;;;;;23.27;10.93;;;6.30;99.90;;;;;;5059228;28;20216;-69
2020/12/22 12:09:12;;;;;;;21.47;11.53;;;6.40;99.90;;;;;;5060076;28;20812;-68
2020/12/22 12:11:38;;;;;;;22.87;11.10;;;6.40;99.90;;;;;;5062295;28;20198;-69
2020/12/22 12:14:05;;;;;;;28.67;12.90;;;6.40;99.90;;;;;;5052876;28;20206;-69
2020/12/22 12:16:32;;;;;;;25.47;12.23;;;6.40;99.90;;;;;;5057275;28;20301;-68
2020/12/22 12:19:00;;;;;;;23.50;12.10;;;6.40;99.90;;;;;;5069313;28;20212;-68
2020/12/22 12:21:28;;;;;;;26.80;12.20;;;6.50;99.90;;;;;;5102053;28;20197;-69
2020/12/22 12:23:55;;;;;;;26.13;12.03;;;6.50;99.90;;;;;;5093646;28;20828;-69
2020/12/22 12:26:23;;;;;;;25.13;12.27;;;6.50;99.90;;;;;;5056171;28;20214;-69
2020/12/22 12:28:50;;;;;;;24.33;11.00;;;6.50;99.90;;;;;;5090102;28;20331;-69
2020/12/22 12:31:21;;;;;;;27.70;13.33;;;6.60;99.90;;;;;;5089556;28;20211;-69
2020/12/22 12:33:52;;;;;;;27.30;11.63;;;6.50;99.90;;;;;;5092110;28;20200;-69
2020/12/22 12:36:20;;;;;;;25.27;12.10;;;6.60;99.90;;;;;;5090523;28;20579;-69
2020/12/22 12:38:46;;;;;;;24.70;11.93;;;6.60;99.90;;;;;;5093262;28;20240;-69
2020/12/22 12:41:13;;;;;;;27.67;12.67;;;6.60;99.90;;;;;;5090658;28;20210;-69